Airfield :
LOGIN :

Register | Disclaimer

   EN    FR    IT 

 










Legend :    VFR   Marginal VFR   IFR   Intensive IFR   Very Intensive IFR
Visi :
Ceiling :
>= 8 km
>= 3000ft
5 to 8 km
1000 to 3000 ft
1500m to 5 km
500 to 1000 ft
800 to 1500m
200 to 500 ft
< 800m
< 200 ft
Symbols :   Thunderstorms  Fog  Heavy snow  Heavy precipitations  Wind > 20 kt
SIGMETs :     Misc.  Thunderstorms  Icing  Turbulence  Mountain Waves  Volcanic Ashes






- Airport Elevation : 49 ft
- IATA code : GLZ


EHGR - Gilze-Rijen Airbase

CURRENT METAR :
  • 151925Z AUTO 18005KT 130V220 9000 BR BKN022 BKN025 OVC029 14/13 Q1007 WHT

EXPIRED METARs :
  • 151855Z AUTO 19004KT 150V230 9999 SCT033 OVC130 14/13 Q1007 BLU
  • 151825Z AUTO 19006KT 150V230 9999 SCT030 BKN036 OVC110 14/13 Q1007 BLU
  • 151755Z AUTO 19005KT 160V230 9999 FEW029 BKN098 OVC100 14/13 Q1007 REDZ BLU
  • 151725Z AUTO 20005KT 150V230 9999 -RA BKN038 OVC042 14/13 Q1006 BLU
  • 151655Z AUTO 19005KT 150V210 9999 SCT071 OVC078 14/13 Q1006 BLU

TAF TAF EHGR
Valid from the 15 at 09:00 until the 15 at 21:00 UTC


150835Z 1509/1521 20007KT 9999 FEW015 OVC060
PROB40
TEMPO 1509/1516 SCT013
PROB30
TEMPO 1516/1521 SCT018CB BKN025



MET'MAP, your aeronautical weather chart ! - Copyright ORBIFLY December 2007 - Disclaimer

ORBIFLY MET'MAP TEAM :

Programming & Development : Alexandra Zaïnal
Concept & Development : Baudouin d'Aumeries
Co-Development & Prog : Marc-Olivier Méhu
Technical & hardware support : Manuel Goepfert

Contact : metmap@orbifly.com




SOURCES & CREDITS :

   NOAA